sensor_id;sensor_type;location;lat;lon;timestamp;pressure;altitude;pressure_sealevel;temperature;humidity
38038;BME280;23843;51.320;12.340;2022-09-30T04:30:18;99724.38;;;7.39;78.91
38038;BME280;23843;51.320;12.340;2022-09-30T04:32:44;99716.34;;;7.42;77.54
38038;BME280;23843;51.320;12.340;2022-09-30T04:35:09;99726.69;;;7.45;76.42
38038;BME280;23843;51.320;12.340;2022-09-30T04:37:35;99734.59;;;7.45;77.10
38038;BME280;23843;51.320;12.340;2022-09-30T04:40:00;99729.34;;;7.45;76.06
38038;BME280;23843;51.320;12.340;2022-09-30T04:42:26;99728.41;;;7.46;76.98
38038;BME280;23843;51.320;12.340;2022-09-30T04:44:51;99722.38;;;7.44;75.89
38038;BME280;23843;51.320;12.340;2022-09-30T04:47:18;99729.50;;;7.42;75.98
38038;BME280;23843;51.320;12.340;2022-09-30T04:49:43;99718.97;;;7.42;74.72
38038;BME280;23843;51.320;12.340;2022-09-30T04:52:08;99724.31;;;7.40;75.49
38038;BME280;23843;51.320;12.340;2022-09-30T04:54:34;99724.38;;;7.39;75.20
38038;BME280;23843;51.320;12.340;2022-09-30T04:56:59;99727.09;;;7.37;75.21
38038;BME280;23843;51.320;12.340;2022-09-30T04:59:25;99742.75;;;7.40;76.22
38038;BME280;23843;51.320;12.340;2022-09-30T05:01:50;99740.81;;;7.44;75.98
38038;BME280;23843;51.320;12.340;2022-09-30T05:04:17;99746.09;;;7.44;75.41
38038;BME280;23843;51.320;12.340;2022-09-30T05:06:42;99751.44;;;7.42;75.66
38038;BME280;23843;51.320;12.340;2022-09-30T05:09:07;99747.94;;;7.42;74.79
38038;BME280;23843;51.320;12.340;2022-09-30T05:11:33;99751.44;;;7.42;75.44
38038;BME280;23843;51.320;12.340;2022-09-30T05:13:58;99744.53;;;7.40;74.79
38038;BME280;23843;51.320;12.340;2022-09-30T05:16:23;99749.09;;;7.36;74.50
38038;BME280;23843;51.320;12.340;2022-09-30T05:18:49;99756.00;;;7.39;75.67
38038;BME280;23843;51.320;12.340;2022-09-30T05:21:17;99755.00;;;7.41;76.19
38038;BME280;23843;51.320;12.340;2022-09-30T05:23:43;99767.47;;;7.38;75.50
38038;BME280;23843;51.320;12.340;2022-09-30T05:26:08;99770.03;;;7.39;75.48
38038;BME280;23843;51.320;12.340;2022-09-30T05:28:33;99772.56;;;7.41;76.33
38038;BME280;23843;51.320;12.340;2022-09-30T05:31:00;99761.97;;;7.42;76.42
38038;BME280;23843;51.320;12.340;2022-09-30T05:33:27;99764.84;;;7.38;76.42
38038;BME280;23843;51.320;12.340;2022-09-30T05:35:52;99765.69;;;7.38;75.88
38038;BME280;23843;51.320;12.340;2022-09-30T05:38:19;99766.69;;;7.36;76.44
38038;BME280;23843;51.320;12.340;2022-09-30T05:40:44;99765.63;;;7.40;76.27
38038;BME280;23843;51.320;12.340;2022-09-30T05:43:10;99776.78;;;7.45;76.65
38038;BME280;23843;51.320;12.340;2022-09-30T05:45:35;99772.19;;;7.48;76.43
38038;BME280;23843;51.320;12.340;2022-09-30T05:48:01;99781.81;;;7.49;77.32
38038;BME280;23843;51.320;12.340;2022-09-30T05:50:26;99781.44;;;7.57;76.56
38038;BME280;23843;51.320;12.340;2022-09-30T05:52:52;99786.41;;;7.63;76.92
38038;BME280;23843;51.320;12.340;2022-09-30T05:55:19;99784.22;;;7.71;76.38
38038;BME280;23843;51.320;12.340;2022-09-30T05:57:47;99785.38;;;7.83;77.42
38038;BME280;23843;51.320;12.340;2022-09-30T06:00:13;99787.78;;;7.88;77.97
38038;BME280;23843;51.320;12.340;2022-09-30T06:02:41;99781.97;;;8.14;77.38
38038;BME280;23843;51.320;12.340;2022-09-30T06:05:07;99793.63;;;8.60;78.10
38038;BME280;23843;51.320;12.340;2022-09-30T06:07:33;99795.41;;;9.07;76.89
38038;BME280;23843;51.320;12.340;2022-09-30T06:09:59;99800.56;;;9.40;74.90
38038;BME280;23843;51.320;12.340;2022-09-30T06:12:26;99796.41;;;9.95;74.66
38038;BME280;23843;51.320;12.340;2022-09-30T06:14:51;99797.59;;;10.62;71.87
38038;BME280;23843;51.320;12.340;2022-09-30T06:17:18;99806.91;;;10.82;70.87
38038;BME280;23843;51.320;12.340;2022-09-30T06:19:43;99804.47;;;11.06;71.20
38038;BME280;23843;51.320;12.340;2022-09-30T06:22:08;99802.66;;;11.74;69.76
38038;BME280;23843;51.320;12.340;2022-09-30T06:24:34;99804.06;;;12.43;65.48
38038;BME280;23843;51.320;12.340;2022-09-30T06:26:59;99806.50;;;12.59;65.07
38038;BME280;23843;51.320;12.340;2022-09-30T06:29:26;99809.28;;;12.45;63.82
38038;BME280;23843;51.320;12.340;2022-09-30T06:31:51;99811.63;;;12.11;64.84
38038;BME280;23843;51.320;12.340;2022-09-30T06:34:17;99813.19;;;11.75;65.65
38038;BME280;23843;51.320;12.340;2022-09-30T06:36:42;99826.03;;;11.69;66.99
38038;BME280;23843;51.320;12.340;2022-09-30T06:39:07;99824.44;;;11.79;67.85
38038;BME280;23843;51.320;12.340;2022-09-30T06:41:33;99825.31;;;11.92;67.66
38038;BME280;23843;51.320;12.340;2022-09-30T06:43:58;99837.22;;;11.99;66.51
38038;BME280;23843;51.320;12.340;2022-09-30T06:46:25;99839.47;;;12.06;67.07
38038;BME280;23843;51.320;12.340;2022-09-30T06:48:53;99851.38;;;12.00;66.75
38038;BME280;23843;51.320;12.340;2022-09-30T06:51:19;99851.78;;;11.94;66.93
38038;BME280;23843;51.320;12.340;2022-09-30T06:53:44;99854.91;;;11.86;67.47
38038;BME280;23843;51.320;12.340;2022-09-30T06:56:09;99861.50;;;11.81;67.97
38038;BME280;23843;51.320;12.340;2022-09-30T06:58:35;99853.16;;;11.60;68.45
38038;BME280;23843;51.320;12.340;2022-09-30T07:01:02;99857.66;;;11.45;69.30
38038;BME280;23843;51.320;12.340;2022-09-30T07:03:31;99863.72;;;11.47;70.20
38038;BME280;23843;51.320;12.340;2022-09-30T07:05:57;99861.22;;;11.58;69.42
38038;BME280;23843;51.320;12.340;2022-09-30T07:08:24;99863.84;;;11.58;69.57
38038;BME280;23843;51.320;12.340;2022-09-30T07:10:49;99873.84;;;11.54;69.65
38038;BME280;23843;51.320;12.340;2022-09-30T07:13:15;99875.44;;;11.57;69.57
38038;BME280;23843;51.320;12.340;2022-09-30T07:15:40;99880.22;;;11.65;69.77
38038;BME280;23843;51.320;12.340;2022-09-30T07:18:06;99884.72;;;11.77;69.97
38038;BME280;23843;51.320;12.340;2022-09-30T07:20:33;99884.69;;;12.04;69.25
38038;BME280;23843;51.320;12.340;2022-09-30T07:22:58;99882.84;;;12.45;68.77
38038;BME280;23843;51.320;12.340;2022-09-30T07:25:23;99881.63;;;13.24;67.39
38038;BME280;23843;51.320;12.340;2022-09-30T07:27:49;99879.44;;;14.48;64.53
38038;BME280;23843;51.320;12.340;2022-09-30T07:30:14;99878.41;;;15.82;60.89
38038;BME280;23843;51.320;12.340;2022-09-30T07:32:40;99877.63;;;17.26;56.12
38038;BME280;23843;51.320;12.340;2022-09-30T07:35:06;99879.97;;;18.65;53.61
38038;BME280;23843;51.320;12.340;2022-09-30T07:37:33;99874.09;;;19.62;49.82
38038;BME280;23843;51.320;12.340;2022-09-30T07:39:58;99879.38;;;20.26;45.67
38038;BME280;23843;51.320;12.340;2022-09-30T07:42:24;99883.00;;;20.61;46.00
38038;BME280;23843;51.320;12.340;2022-09-30T07:44:49;99879.09;;;21.32;44.08
38038;BME280;23843;51.320;12.340;2022-09-30T07:47:15;99883.28;;;22.10;43.93
38038;BME280;23843;51.320;12.340;2022-09-30T07:49:41;99890.50;;;22.58;42.34
38038;BME280;23843;51.320;12.340;2022-09-30T07:52:07;99882.53;;;23.52;39.04
38038;BME280;23843;51.320;12.340;2022-09-30T07:54:34;99888.97;;;24.05;38.05
38038;BME280;23843;51.320;12.340;2022-09-30T07:57:01;99891.44;;;24.68;39.01
38038;BME280;23843;51.320;12.340;2022-09-30T07:59:28;99884.34;;;24.82;38.03
38038;BME280;23843;51.320;12.340;2022-09-30T08:01:53;99890.69;;;25.04;34.12
38038;BME280;23843;51.320;12.340;2022-09-30T08:04:20;99898.13;;;25.68;36.36
38038;BME280;23843;51.320;12.340;2022-09-30T08:06:48;99902.63;;;25.97;33.41
38038;BME280;23843;51.320;12.340;2022-09-30T08:09:15;99907.06;;;26.26;34.13
38038;BME280;23843;51.320;12.340;2022-09-30T08:11:42;99906.31;;;26.11;32.79
38038;BME280;23843;51.320;12.340;2022-09-30T08:14:12;99905.41;;;26.25;32.64
38038;BME280;23843;51.320;12.340;2022-09-30T08:16:37;99909.34;;;26.51;34.72
38038;BME280;23843;51.320;12.340;2022-09-30T08:19:03;99903.28;;;27.11;28.79
38038;BME280;23843;51.320;12.340;2022-09-30T08:21:28;99916.84;;;27.53;30.06
38038;BME280;23843;51.320;12.340;2022-09-30T08:23:54;99927.63;;;26.57;32.46
38038;BME280;23843;51.320;12.340;2022-09-30T08:26:19;99928.78;;;25.47;32.40
38038;BME280;23843;51.320;12.340;2022-09-30T08:28:46;99938.03;;;24.40;33.62
38038;BME280;23843;51.320;12.340;2022-09-30T08:31:13;99933.97;;;23.04;37.27
38038;BME280;23843;51.320;12.340;2022-09-30T08:33:39;99932.94;;;22.89;37.77
38038;BME280;23843;51.320;12.340;2022-09-30T08:36:07;99933.53;;;22.60;38.41
38038;BME280;23843;51.320;12.340;2022-09-30T08:38:33;99940.78;;;22.43;39.23
38038;BME280;23843;51.320;12.340;2022-09-30T08:41:10;99938.41;;;21.99;40.29
38038;BME280;23843;51.320;12.340;2022-09-30T08:43:53;99933.88;;;22.40;39.63
38038;BME280;23843;51.320;12.340;2022-09-30T08:46:32;99927.97;;;23.57;36.28
38038;BME280;23843;51.320;12.340;2022-09-30T08:49:04;99930.19;;;23.84;35.98
38038;BME280;23843;51.320;12.340;2022-09-30T08:51:41;99923.84;;;23.69;37.46
38038;BME280;23843;51.320;12.340;2022-09-30T08:54:11;99928.09;;;23.32;37.49
38038;BME280;23843;51.320;12.340;2022-09-30T08:56:38;99931.88;;;22.34;37.96
38038;BME280;23843;51.320;12.340;2022-09-30T08:59:10;99938.63;;;21.47;41.94
38038;BME280;23843;51.320;12.340;2022-09-30T09:01:41;99937.00;;;20.85;41.05
38038;BME280;23843;51.320;12.340;2022-09-30T09:04:09;99940.69;;;20.58;44.34
38038;BME280;23843;51.320;12.340;2022-09-30T09:06:40;99938.41;;;19.92;41.74
38038;BME280;23843;51.320;12.340;2022-09-30T09:09:23;99937.34;;;19.84;44.02
38038;BME280;23843;51.320;12.340;2022-09-30T09:12:00;99938.03;;;19.69;43.95
38038;BME280;23843;51.320;12.340;2022-09-30T09:14:38;99935.63;;;19.38;45.00
38038;BME280;23843;51.320;12.340;2022-09-30T09:17:15;99940.03;;;19.39;45.93
38038;BME280;23843;51.320;12.340;2022-09-30T09:19:46;99928.16;;;19.04;44.30
38038;BME280;23843;51.320;12.340;2022-09-30T09:22:17;99933.06;;;18.71;46.82
38038;BME280;23843;51.320;12.340;2022-09-30T09:24:44;99935.81;;;18.42;46.88
38038;BME280;23843;51.320;12.340;2022-09-30T09:27:19;99939.34;;;18.33;47.38
38038;BME280;23843;51.320;12.340;2022-09-30T09:29:52;99941.91;;;18.15;48.77
38038;BME280;23843;51.320;12.340;2022-09-30T09:32:20;99939.22;;;18.15;48.47
38038;BME280;23843;51.320;12.340;2022-09-30T09:34:50;99946.44;;;18.24;48.66
38038;BME280;23843;51.320;12.340;2022-09-30T09:37:21;99937.09;;;18.18;48.79
38038;BME280;23843;51.320;12.340;2022-09-30T09:39:59;99943.34;;;18.00;49.55
38038;BME280;23843;51.320;12.340;2022-09-30T09:42:48;99941.91;;;17.86;49.13
38038;BME280;23843;51.320;12.340;2022-09-30T09:45:26;99937.91;;;17.70;49.32
38038;BME280;23843;51.320;12.340;2022-09-30T09:47:54;99945.09;;;17.70;49.24
38038;BME280;23843;51.320;12.340;2022-09-30T09:50:22;99942.28;;;17.71;48.03
38038;BME280;23843;51.320;12.340;2022-09-30T09:53:07;99940.72;;;17.69;49.98
38038;BME280;23843;51.320;12.340;2022-09-30T09:55:38;99944.09;;;17.61;49.78
38038;BME280;23843;51.320;12.340;2022-09-30T09:58:04;99942.13;;;17.53;51.09
38038;BME280;23843;51.320;12.340;2022-09-30T10:00:31;99931.06;;;17.37;50.82
38038;BME280;23843;51.320;12.340;2022-09-30T10:02:58;99939.19;;;17.26;51.77
38038;BME280;23843;51.320;12.340;2022-09-30T10:05:24;99936.09;;;17.21;51.59
38038;BME280;23843;51.320;12.340;2022-09-30T10:08:07;99935.25;;;17.20;52.72
38038;BME280;23843;51.320;12.340;2022-09-30T10:10:42;99934.41;;;17.20;49.58
38038;BME280;23843;51.320;12.340;2022-09-30T10:13:14;99940.28;;;17.14;49.14
38038;BME280;23843;51.320;12.340;2022-09-30T10:15:42;99937.66;;;17.23;50.19
38038;BME280;23843;51.320;12.340;2022-09-30T10:18:16;99935.28;;;17.30;50.65
38038;BME280;23843;51.320;12.340;2022-09-30T10:20:49;99925.69;;;17.27;50.58
38038;BME280;23843;51.320;12.340;2022-09-30T10:23:18;99927.78;;;17.24;51.41
38038;BME280;23843;51.320;12.340;2022-09-30T10:25:55;99923.13;;;17.26;50.94
38038;BME280;23843;51.320;12.340;2022-09-30T10:28:22;99924.13;;;17.25;49.90
38038;BME280;23843;51.320;12.340;2022-09-30T10:30:52;99923.44;;;17.23;51.63
38038;BME280;23843;51.320;12.340;2022-09-30T10:33:27;99918.78;;;17.25;50.62
38038;BME280;23843;51.320;12.340;2022-09-30T10:36:06;99924.81;;;17.17;50.87
38038;BME280;23843;51.320;12.340;2022-09-30T10:38:33;99923.28;;;17.15;52.71
38038;BME280;23843;51.320;12.340;2022-09-30T10:41:00;99912.84;;;17.21;52.32
38038;BME280;23843;51.320;12.340;2022-09-30T10:43:30;99926.22;;;17.21;51.85
38038;BME280;23843;51.320;12.340;2022-09-30T10:45:58;99927.63;;;17.16;52.63
38038;BME280;23843;51.320;12.340;2022-09-30T10:48:25;99922.28;;;17.16;51.69
38038;BME280;23843;51.320;12.340;2022-09-30T10:50:54;99922.69;;;17.11;52.11
38038;BME280;23843;51.320;12.340;2022-09-30T10:53:22;99918.03;;;17.13;52.74
38038;BME280;23843;51.320;12.340;2022-09-30T10:55:48;99913.25;;;17.17;52.60
38038;BME280;23843;51.320;12.340;2022-09-30T10:58:24;99919.69;;;17.04;51.73
38038;BME280;23843;51.320;12.340;2022-09-30T11:00:53;99921.91;;;16.99;52.86
38038;BME280;23843;51.320;12.340;2022-09-30T11:03:27;99921.28;;;17.07;53.80
38038;BME280;23843;51.320;12.340;2022-09-30T11:05:58;99922.56;;;17.13;53.00
38038;BME280;23843;51.320;12.340;2022-09-30T11:08:29;99925.06;;;17.14;53.08
38038;BME280;23843;51.320;12.340;2022-09-30T11:10:58;99924.50;;;17.10;53.94
38038;BME280;23843;51.320;12.340;2022-09-30T11:13:29;99919.28;;;17.09;52.51
38038;BME280;23843;51.320;12.340;2022-09-30T11:16:03;99923.06;;;17.06;53.05
38038;BME280;23843;51.320;12.340;2022-09-30T11:18:36;99913.50;;;17.04;53.33
38038;BME280;23843;51.320;12.340;2022-09-30T11:21:07;99916.59;;;17.09;53.00
38038;BME280;23843;51.320;12.340;2022-09-30T11:23:37;99914.09;;;17.07;52.66
38038;BME280;23843;51.320;12.340;2022-09-30T11:26:13;99904.78;;;17.11;53.56
38038;BME280;23843;51.320;12.340;2022-09-30T11:28:55;99905.94;;;17.19;51.95
38038;BME280;23843;51.320;12.340;2022-09-30T11:31:30;99897.78;;;17.20;51.70
38038;BME280;23843;51.320;12.340;2022-09-30T11:34:16;99905.94;;;17.19;51.09
38038;BME280;23843;51.320;12.340;2022-09-30T11:36:49;99907.91;;;17.07;52.15
38038;BME280;23843;51.320;12.340;2022-09-30T11:39:44;99895.78;;;17.13;52.29
38038;BME280;23843;51.320;12.340;2022-09-30T11:42:18;99893.53;;;17.18;52.36
38038;BME280;23843;51.320;12.340;2022-09-30T11:44:52;99899.47;;;17.21;52.61
38038;BME280;23843;51.320;12.340;2022-09-30T11:47:35;99894.09;;;17.21;52.69
38038;BME280;23843;51.320;12.340;2022-09-30T11:50:30;99896.22;;;17.18;52.70
38038;BME280;23843;51.320;12.340;2022-09-30T11:53:07;99894.41;;;17.28;51.67
38038;BME280;23843;51.320;12.340;2022-09-30T11:55:54;99891.84;;;17.26;50.50
38038;BME280;23843;51.320;12.340;2022-09-30T11:58:25;99888.50;;;17.24;50.05
38038;BME280;23843;51.320;12.340;2022-09-30T12:00:57;99895.81;;;17.22;51.36
38038;BME280;23843;51.320;12.340;2022-09-30T12:03:26;99893.41;;;17.19;51.53
38038;BME280;23843;51.320;12.340;2022-09-30T12:05:58;99893.53;;;17.18;52.08
38038;BME280;23843;51.320;12.340;2022-09-30T12:08:30;99897.34;;;17.15;51.24
38038;BME280;23843;51.320;12.340;2022-09-30T12:11:01;99897.75;;;17.10;51.56
38038;BME280;23843;51.320;12.340;2022-09-30T12:13:30;99900.31;;;17.12;51.54
38038;BME280;23843;51.320;12.340;2022-09-30T12:15:58;99906.31;;;17.04;50.59
38038;BME280;23843;51.320;12.340;2022-09-30T12:18:30;99907.31;;;17.03;52.64
38038;BME280;23843;51.320;12.340;2022-09-30T12:21:00;99901.13;;;17.13;51.58
38038;BME280;23843;51.320;12.340;2022-09-30T12:23:31;99913.72;;;17.22;51.41
38038;BME280;23843;51.320;12.340;2022-09-30T12:25:59;99908.06;;;17.25;50.91
38038;BME280;23843;51.320;12.340;2022-09-30T12:28:30;99910.75;;;17.25;51.13
38038;BME280;23843;51.320;12.340;2022-09-30T12:31:03;99909.31;;;17.21;50.23
38038;BME280;23843;51.320;12.340;2022-09-30T12:33:53;99898.78;;;17.19;50.29
38038;BME280;23843;51.320;12.340;2022-09-30T12:36:42;99908.47;;;17.20;50.31
38038;BME280;23843;51.320;12.340;2022-09-30T12:39:45;99904.97;;;17.20;50.60
38038;BME280;23843;51.320;12.340;2022-09-30T12:42:31;99912.72;;;17.23;50.97
38038;BME280;23843;51.320;12.340;2022-09-30T12:48:03;99912.34;;;17.37;50.69
38038;BME280;23843;51.320;12.340;2022-09-30T12:50:33;99917.69;;;17.37;50.17
38038;BME280;23843;51.320;12.340;2022-09-30T12:53:09;99908.38;;;17.31;49.80
38038;BME280;23843;51.320;12.340;2022-09-30T12:55:38;99910.47;;;17.28;49.80
38038;BME280;23843;51.320;12.340;2022-09-30T12:58:12;99912.44;;;17.26;49.81
38038;BME280;23843;51.320;12.340;2022-09-30T13:00:58;99913.56;;;17.23;49.93
38038;BME280;23843;51.320;12.340;2022-09-30T13:03:24;99903.84;;;17.22;49.58
38038;BME280;23843;51.320;12.340;2022-09-30T13:05:52;99903.84;;;17.22;49.62
38038;BME280;23843;51.320;12.340;2022-09-30T13:08:40;99904.13;;;17.19;50.27
38038;BME280;23843;51.320;12.340;2022-09-30T13:11:34;99902.84;;;17.23;51.47
38038;BME280;23843;51.320;12.340;2022-09-30T13:14:11;99902.00;;;17.23;50.03
38038;BME280;23843;51.320;12.340;2022-09-30T13:19:37;99902.13;;;17.21;49.56
38038;BME280;23843;51.320;12.340;2022-09-30T13:22:41;99894.38;;;17.18;49.39
38038;BME280;23843;51.320;12.340;2022-09-30T13:25:12;99895.63;;;17.14;49.38
38038;BME280;23843;51.320;12.340;2022-09-30T13:27:40;99891.97;;;17.05;49.35
38038;BME280;23843;51.320;12.340;2022-09-30T13:30:30;99893.47;;;16.98;49.88
38038;BME280;23843;51.320;12.340;2022-09-30T13:33:25;99899.34;;;16.92;49.40
38038;BME280;23843;51.320;12.340;2022-09-30T13:35:57;99897.69;;;16.91;49.73
38038;BME280;23843;51.320;12.340;2022-09-30T13:38:33;99904.03;;;16.90;50.62
38038;BME280;23843;51.320;12.340;2022-09-30T13:41:05;99908.38;;;16.91;49.36
38038;BME280;23843;51.320;12.340;2022-09-30T13:43:36;99913.44;;;16.94;48.99
38038;BME280;23843;51.320;12.340;2022-09-30T13:46:07;99907.84;;;16.97;49.71
38038;BME280;23843;51.320;12.340;2022-09-30T13:48:37;99911.94;;;17.01;50.41
38038;BME280;23843;51.320;12.340;2022-09-30T13:51:07;99910.97;;;17.02;50.01
38038;BME280;23843;51.320;12.340;2022-09-30T13:53:38;99910.69;;;17.05;50.74
38038;BME280;23843;51.320;12.340;2022-09-30T13:56:15;99903.22;;;17.09;50.54
38038;BME280;23843;51.320;12.340;2022-09-30T13:59:16;99915.78;;;17.08;51.17
38038;BME280;23843;51.320;12.340;2022-09-30T14:01:54;99914.22;;;17.06;49.98
38038;BME280;23843;51.320;12.340;2022-09-30T14:04:49;99905.63;;;17.02;49.82
38038;BME280;23843;51.320;12.340;2022-09-30T14:07:24;99908.69;;;16.98;49.09
38038;BME280;23843;51.320;12.340;2022-09-30T14:10:02;99913.06;;;16.99;49.86
38038;BME280;23843;51.320;12.340;2022-09-30T14:12:46;99915.59;;;17.00;51.00
38038;BME280;23843;51.320;12.340;2022-09-30T14:18:23;99905.72;;;16.91;49.61
38038;BME280;23843;51.320;12.340;2022-09-30T14:21:03;99911.78;;;16.93;49.61
38038;BME280;23843;51.320;12.340;2022-09-30T14:23:29;99903.34;;;16.98;50.43
38038;BME280;23843;51.320;12.340;2022-09-30T14:26:03;99911.38;;;16.98;49.85
38038;BME280;23843;51.320;12.340;2022-09-30T14:28:38;99909.22;;;16.92;49.01
38038;BME280;23843;51.320;12.340;2022-09-30T14:31:12;99907.81;;;16.87;49.97
38038;BME280;23843;51.320;12.340;2022-09-30T14:33:39;99906.09;;;16.86;49.82
38038;BME280;23843;51.320;12.340;2022-09-30T14:36:11;99909.91;;;16.84;49.56
38038;BME280;23843;51.320;12.340;2022-09-30T14:38:38;99907.22;;;16.84;49.57
38038;BME280;23843;51.320;12.340;2022-09-30T14:41:15;99912.63;;;16.73;48.93
38038;BME280;23843;51.320;12.340;2022-09-30T14:43:43;99909.94;;;16.73;49.42
38038;BME280;23843;51.320;12.340;2022-09-30T14:46:17;99904.59;;;16.73;50.38
38038;BME280;23843;51.320;12.340;2022-09-30T14:48:47;99908.25;;;16.72;50.61
38038;BME280;23843;51.320;12.340;2022-09-30T14:51:14;99907.53;;;16.69;49.50
38038;BME280;23843;51.320;12.340;2022-09-30T14:53:50;99910.16;;;16.60;49.26
38038;BME280;23843;51.320;12.340;2022-09-30T14:56:19;99906.66;;;16.59;49.47
38038;BME280;23843;51.320;12.340;2022-09-30T14:58:46;99901.31;;;16.59;49.74
38038;BME280;23843;51.320;12.340;2022-09-30T15:01:14;99900.47;;;16.59;50.22
38038;BME280;23843;51.320;12.340;2022-09-30T15:03:42;99900.59;;;16.57;49.54
38038;BME280;23843;51.320;12.340;2022-09-30T15:06:16;99893.28;;;16.59;48.79
38038;BME280;23843;51.320;12.340;2022-09-30T15:08:42;99899.88;;;16.55;48.55
38038;BME280;23843;51.320;12.340;2022-09-30T15:11:08;99899.13;;;16.53;49.91
38038;BME280;23843;51.320;12.340;2022-09-30T15:13:41;99903.91;;;16.50;48.75
38038;BME280;23843;51.320;12.340;2022-09-30T15:16:23;99904.59;;;16.42;48.96
38038;BME280;23843;51.320;12.340;2022-09-30T15:18:49;99911.69;;;16.32;48.20
38038;BME280;23843;51.320;12.340;2022-09-30T15:21:15;99900.13;;;16.31;50.26
38038;BME280;23843;51.320;12.340;2022-09-30T15:23:42;99915.59;;;16.27;49.95
38038;BME280;23843;51.320;12.340;2022-09-30T15:26:11;99903.91;;;16.29;50.89
38038;BME280;23843;51.320;12.340;2022-09-30T15:28:37;99909.28;;;16.29;51.33
38038;BME280;23843;51.320;12.340;2022-09-30T15:31:03;99900.69;;;16.25;51.34
38038;BME280;23843;51.320;12.340;2022-09-30T15:33:30;99906.88;;;16.25;50.91
38038;BME280;23843;51.320;12.340;2022-09-30T15:36:01;99910.75;;;16.21;51.44
38038;BME280;23843;51.320;12.340;2022-09-30T15:38:29;99909.34;;;16.17;51.53
38038;BME280;23843;51.320;12.340;2022-09-30T15:40:58;99909.19;;;16.19;51.43
38038;BME280;23843;51.320;12.340;2022-09-30T15:43:39;99912.97;;;16.16;51.05
38038;BME280;23843;51.320;12.340;2022-09-30T15:46:22;99907.19;;;16.11;51.94
38038;BME280;23843;51.320;12.340;2022-09-30T15:48:49;99917.41;;;16.06;52.42
38038;BME280;23843;51.320;12.340;2022-09-30T15:51:32;99907.00;;;16.03;52.70
38038;BME280;23843;51.320;12.340;2022-09-30T15:53:58;99908.09;;;16.00;52.65
38038;BME280;23843;51.320;12.340;2022-09-30T15:56:35;99906.78;;;15.95;52.86
38038;BME280;23843;51.320;12.340;2022-09-30T15:59:04;99908.59;;;15.94;52.78
38038;BME280;23843;51.320;12.340;2022-09-30T16:01:36;99911.53;;;15.91;52.92
38038;BME280;23843;51.320;12.340;2022-09-30T16:04:07;99911.91;;;15.87;53.28
38038;BME280;23843;51.320;12.340;2022-09-30T16:06:36;99913.13;;;15.82;53.33
38038;BME280;23843;51.320;12.340;2022-09-30T16:09:17;99907.34;;;15.77;52.76
38038;BME280;23843;51.320;12.340;2022-09-30T16:11:45;99905.66;;;15.76;53.17
38038;BME280;23843;51.320;12.340;2022-09-30T16:14:18;99909.31;;;15.75;53.08
38038;BME280;23843;51.320;12.340;2022-09-30T16:16:48;99907.00;;;15.71;53.15
38038;BME280;23843;51.320;12.340;2022-09-30T16:19:16;99909.03;;;15.67;52.23
38038;BME280;23843;51.320;12.340;2022-09-30T16:21:43;99911.25;;;15.62;52.05
38038;BME280;23843;51.320;12.340;2022-09-30T16:24:44;99920.47;;;15.58;51.87
38038;BME280;23843;51.320;12.340;2022-09-30T16:27:29;99921.94;;;15.51;51.62
38038;BME280;23843;51.320;12.340;2022-09-30T16:29:55;99919.78;;;15.45;51.52
38038;BME280;23843;51.320;12.340;2022-09-30T16:32:21;99918.47;;;15.39;51.74
38038;BME280;23843;51.320;12.340;2022-09-30T16:34:48;99921.63;;;15.33;51.99
38038;BME280;23843;51.320;12.340;2022-09-30T16:37:16;99914.97;;;15.27;52.39
38038;BME280;23843;51.320;12.340;2022-09-30T16:39:42;99913.66;;;15.22;52.29
38038;BME280;23843;51.320;12.340;2022-09-30T16:42:11;99920.31;;;15.16;53.17
38038;BME280;23843;51.320;12.340;2022-09-30T16:44:37;99913.03;;;15.07;53.02
38038;BME280;23843;51.320;12.340;2022-09-30T16:47:03;99915.22;;;15.02;53.46
38038;BME280;23843;51.320;12.340;2022-09-30T16:49:28;99914.75;;;14.96;54.53
38038;BME280;23843;51.320;12.340;2022-09-30T16:51:55;99921.53;;;14.89;54.78
38038;BME280;23843;51.320;12.340;2022-09-30T16:54:20;99918.63;;;14.81;54.75
38038;BME280;23843;51.320;12.340;2022-09-30T16:56:46;99920.81;;;14.76;54.77
38038;BME280;23843;51.320;12.340;2022-09-30T16:59:13;99924.69;;;14.72;55.28
38038;BME280;23843;51.320;12.340;2022-09-30T17:01:39;99924.31;;;14.65;56.29
38038;BME280;23843;51.320;12.340;2022-09-30T17:04:04;99926.13;;;14.53;56.87
38038;BME280;23843;51.320;12.340;2022-09-30T17:06:31;99927.53;;;14.46;56.77
38038;BME280;23843;51.320;12.340;2022-09-30T17:08:58;99930.41;;;14.43;57.43
38038;BME280;23843;51.320;12.340;2022-09-30T17:11:24;99931.50;;;14.41;57.31
38038;BME280;23843;51.320;12.340;2022-09-30T17:13:50;99930.91;;;14.37;58.11
38038;BME280;23843;51.320;12.340;2022-09-30T17:16:15;99930.66;;;14.29;58.68
38038;BME280;23843;51.320;12.340;2022-09-30T17:18:41;99932.78;;;14.24;59.34
38038;BME280;23843;51.320;12.340;2022-09-30T17:21:06;99929.63;;;14.19;59.52
38038;BME280;23843;51.320;12.340;2022-09-30T17:23:31;99942.47;;;14.13;60.57
38038;BME280;23843;51.320;12.340;2022-09-30T17:25:58;99933.97;;;14.08;59.67
38038;BME280;23843;51.320;12.340;2022-09-30T17:28:23;99940.47;;;14.04;61.19
38038;BME280;23843;51.320;12.340;2022-09-30T17:30:49;99942.63;;;13.99;60.55
38038;BME280;23843;51.320;12.340;2022-09-30T17:33:15;99949.38;;;13.92;60.77
38038;BME280;23843;51.320;12.340;2022-09-30T17:35:40;99945.28;;;13.88;61.63
38038;BME280;23843;51.320;12.340;2022-09-30T17:38:06;99944.97;;;13.80;61.59
38038;BME280;23843;51.320;12.340;2022-09-30T17:40:32;99945.31;;;13.75;61.05
38038;BME280;23843;51.320;12.340;2022-09-30T17:42:58;99942.16;;;13.70;61.96
38038;BME280;23843;51.320;12.340;2022-09-30T17:45:24;99946.97;;;13.65;61.32